sensor_id;sensor_type;location;lat;lon;timestamp;pressure;altitude;pressure_sealevel;temperature;humidity
10716;BME280;5409;42.620;23.316;2023-03-25T00:00:49;91952.56;;;8.60;100.00
10716;BME280;5409;42.620;23.316;2023-03-25T00:03:18;91945.38;;;8.53;100.00
10716;BME280;5409;42.620;23.316;2023-03-25T00:05:44;91941.94;;;8.53;100.00
10716;BME280;5409;42.620;23.316;2023-03-25T00:08:11;91945.94;;;8.48;100.00
10716;BME280;5409;42.620;23.316;2023-03-25T00:10:38;91949.09;;;8.47;100.00
10716;BME280;5409;42.620;23.316;2023-03-25T00:13:05;91956.47;;;8.46;100.00
10716;BME280;5409;42.620;23.316;2023-03-25T00:15:32;91958.53;;;8.42;100.00
10716;BME280;5409;42.620;23.316;2023-03-25T00:18:01;91950.28;;;8.46;100.00
10716;BME280;5409;42.620;23.316;2023-03-25T00:20:28;91944.00;;;8.49;100.00
10716;BME280;5409;42.620;23.316;2023-03-25T00:22:56;91938.44;;;8.40;100.00
10716;BME280;5409;42.620;23.316;2023-03-25T00:25:23;91936.47;;;8.40;100.00
10716;BME280;5409;42.620;23.316;2023-03-25T00:27:50;91933.34;;;8.29;100.00
10716;BME280;5409;42.620;23.316;2023-03-25T00:30:17;91924.66;;;8.34;100.00
10716;BME280;5409;42.620;23.316;2023-03-25T00:32:45;91914.97;;;8.33;100.00
10716;BME280;5409;42.620;23.316;2023-03-25T00:35:15;91922.81;;;8.31;100.00
10716;BME280;5409;42.620;23.316;2023-03-25T00:37:43;91921.28;;;8.30;100.00
10716;BME280;5409;42.620;23.316;2023-03-25T00:40:12;91917.78;;;8.17;100.00
10716;BME280;5409;42.620;23.316;2023-03-25T00:42:39;91928.97;;;8.19;100.00
10716;BME280;5409;42.620;23.316;2023-03-25T00:45:10;91916.69;;;8.15;100.00
10716;BME280;5409;42.620;23.316;2023-03-25T00:47:36;91928.66;;;8.17;100.00
10716;BME280;5409;42.620;23.316;2023-03-25T00:50:04;91927.13;;;8.16;100.00
10716;BME280;5409;42.620;23.316;2023-03-25T00:52:33;91922.47;;;8.17;100.00
10716;BME280;5409;42.620;23.316;2023-03-25T00:54:59;91920.84;;;8.19;100.00
10716;BME280;5409;42.620;23.316;2023-03-25T00:57:27;91920.84;;;8.19;100.00
10716;BME280;5409;42.620;23.316;2023-03-25T00:59:53;91911.50;;;8.20;100.00
10716;BME280;5409;42.620;23.316;2023-03-25T01:02:21;91907.22;;;8.07;100.00
10716;BME280;5409;42.620;23.316;2023-03-25T01:04:48;91916.34;;;8.13;100.00
10716;BME280;5409;42.620;23.316;2023-03-25T01:07:15;91898.88;;;8.14;100.00
10716;BME280;5409;42.620;23.316;2023-03-25T01:09:44;91898.38;;;8.19;100.00
10716;BME280;5409;42.620;23.316;2023-03-25T01:12:11;91900.31;;;8.18;100.00
10716;BME280;5409;42.620;23.316;2023-03-25T01:14:38;91902.44;;;8.11;100.00
10716;BME280;5409;42.620;23.316;2023-03-25T01:17:06;91892.47;;;8.08;100.00
10716;BME280;5409;42.620;23.316;2023-03-25T01:19:33;91892.88;;;8.06;100.00
10716;BME280;5409;42.620;23.316;2023-03-25T01:22:00;91886.69;;;8.06;100.00
10716;BME280;5409;42.620;23.316;2023-03-25T01:24:26;91797.09;;;7.44;100.00
10716;BME280;5409;42.620;23.316;2023-03-25T01:26:54;91894.06;;;7.93;100.00
10716;BME280;5409;42.620;23.316;2023-03-25T01:29:21;91883.66;;;7.91;100.00
10716;BME280;5409;42.620;23.316;2023-03-25T01:31:48;91882.56;;;8.01;100.00
10716;BME280;5409;42.620;23.316;2023-03-25T01:34:15;91880.94;;;8.04;100.00
10716;BME280;5409;42.620;23.316;2023-03-25T01:36:42;91868.25;;;8.01;100.00
10716;BME280;5409;42.620;23.316;2023-03-25T01:39:12;91855.31;;;7.92;100.00
10716;BME280;5409;42.620;23.316;2023-03-25T01:41:41;91872.59;;;8.11;100.00
10716;BME280;5409;42.620;23.316;2023-03-25T01:47:10;91852.81;;;8.10;100.00
10716;BME280;5409;42.620;23.316;2023-03-25T01:49:38;91863.88;;;8.03;100.00
10716;BME280;5409;42.620;23.316;2023-03-25T01:52:11;91858.78;;;7.93;100.00
10716;BME280;5409;42.620;23.316;2023-03-25T01:54:38;91859.56;;;7.93;100.00
10716;BME280;5409;42.620;23.316;2023-03-25T01:57:07;91860.31;;;7.94;100.00
10716;BME280;5409;42.620;23.316;2023-03-25T01:59:36;91857.59;;;7.94;100.00
10716;BME280;5409;42.620;23.316;2023-03-25T02:02:05;91852.03;;;7.85;100.00
10716;BME280;5409;42.620;23.316;2023-03-25T02:04:42;91856.06;;;7.81;100.00
10716;BME280;5409;42.620;23.316;2023-03-25T02:07:11;91851.28;;;7.85;100.00
10716;BME280;5409;42.620;23.316;2023-03-25T02:09:40;91842.50;;;7.81;100.00
10716;BME280;5409;42.620;23.316;2023-03-25T02:12:07;91844.13;;;7.78;100.00
10716;BME280;5409;42.620;23.316;2023-03-25T02:14:36;91848.91;;;7.74;100.00
10716;BME280;5409;42.620;23.316;2023-03-25T02:17:11;91833.34;;;7.50;100.00
10716;BME280;5409;42.620;23.316;2023-03-25T02:19:59;91847.13;;;7.68;100.00
10716;BME280;5409;42.620;23.316;2023-03-25T02:22:54;91841.72;;;7.68;100.00
10716;BME280;5409;42.620;23.316;2023-03-25T02:25:48;91841.59;;;7.59;100.00
10716;BME280;5409;42.620;23.316;2023-03-25T02:28:25;91832.28;;;7.60;100.00
10716;BME280;5409;42.620;23.316;2023-03-25T02:31:13;91838.03;;;7.62;100.00
10716;BME280;5409;42.620;23.316;2023-03-25T02:33:59;91839.31;;;7.57;100.00
10716;BME280;5409;42.620;23.316;2023-03-25T02:36:53;91841.81;;;7.52;100.00
10716;BME280;5409;42.620;23.316;2023-03-25T02:39:30;91842.13;;;7.54;100.00
10716;BME280;5409;42.620;23.316;2023-03-25T02:42:03;91845.84;;;7.60;100.00
10716;BME280;5409;42.620;23.316;2023-03-25T02:44:36;91835.06;;;7.56;100.00
10716;BME280;5409;42.620;23.316;2023-03-25T02:47:08;91833.16;;;7.57;100.00
10716;BME280;5409;42.620;23.316;2023-03-25T02:49:37;91834.47;;;7.65;100.00
10716;BME280;5409;42.620;23.316;2023-03-25T02:52:10;91829.91;;;7.74;100.00
10716;BME280;5409;42.620;23.316;2023-03-25T02:54:42;91735.78;;;7.21;100.00
10716;BME280;5409;42.620;23.316;2023-03-25T02:57:12;91827.28;;;7.83;100.00
10716;BME280;5409;42.620;23.316;2023-03-25T02:59:42;91821.31;;;7.76;100.00
10716;BME280;5409;42.620;23.316;2023-03-25T03:02:10;91823.06;;;7.70;100.00
10716;BME280;5409;42.620;23.316;2023-03-25T03:04:45;91823.91;;;7.67;100.00
10716;BME280;5409;42.620;23.316;2023-03-25T03:07:17;91822.84;;;7.64;100.00
10716;BME280;5409;42.620;23.316;2023-03-25T03:09:51;91825.22;;;7.62;100.00
10716;BME280;5409;42.620;23.316;2023-03-25T03:12:36;91815.69;;;7.58;100.00
10716;BME280;5409;42.620;23.316;2023-03-25T03:15:19;91810.00;;;7.52;100.00
10716;BME280;5409;42.620;23.316;2023-03-25T03:17:55;91814.03;;;7.48;100.00
10716;BME280;5409;42.620;23.316;2023-03-25T03:20:31;91820.34;;;7.57;100.00
10716;BME280;5409;42.620;23.316;2023-03-25T03:23:04;91812.75;;;7.65;100.00
10716;BME280;5409;42.620;23.316;2023-03-25T03:25:44;91813.31;;;7.72;100.00
10716;BME280;5409;42.620;23.316;2023-03-25T03:28:15;91812.13;;;7.73;100.00
10716;BME280;5409;42.620;23.316;2023-03-25T03:30:50;91812.84;;;7.74;100.00
10716;BME280;5409;42.620;23.316;2023-03-25T03:33:24;91821.97;;;7.67;100.00
10716;BME280;5409;42.620;23.316;2023-03-25T03:35:55;91830.00;;;7.58;100.00
10716;BME280;5409;42.620;23.316;2023-03-25T03:38:30;91835.28;;;7.49;100.00
10716;BME280;5409;42.620;23.316;2023-03-25T03:41:05;91827.69;;;7.44;100.00
10716;BME280;5409;42.620;23.316;2023-03-25T03:43:36;91826.81;;;7.47;100.00
10716;BME280;5409;42.620;23.316;2023-03-25T03:46:09;91775.03;;;7.17;100.00
10716;BME280;5409;42.620;23.316;2023-03-25T03:48:41;91826.63;;;7.54;100.00
10716;BME280;5409;42.620;23.316;2023-03-25T03:51:13;91820.44;;;7.41;100.00
10716;BME280;5409;42.620;23.316;2023-03-25T03:53:46;91826.72;;;7.38;100.00
10716;BME280;5409;42.620;23.316;2023-03-25T03:56:20;91832.75;;;7.30;100.00
10716;BME280;5409;42.620;23.316;2023-03-25T03:58:50;91832.44;;;7.28;100.00
10716;BME280;5409;42.620;23.316;2023-03-25T04:01:26;91834.81;;;7.26;100.00
10716;BME280;5409;42.620;23.316;2023-03-25T04:04:00;91833.19;;;7.28;100.00
10716;BME280;5409;42.620;23.316;2023-03-25T04:06:32;91832.84;;;7.26;100.00
10716;BME280;5409;42.620;23.316;2023-03-25T04:09:02;91833.63;;;7.27;100.00
10716;BME280;5409;42.620;23.316;2023-03-25T04:11:36;91832.19;;;7.22;100.00
10716;BME280;5409;42.620;23.316;2023-03-25T04:14:06;91827.28;;;7.17;100.00
10716;BME280;5409;42.620;23.316;2023-03-25T04:16:35;91824.91;;;7.19;100.00
10716;BME280;5409;42.620;23.316;2023-03-25T04:19:03;91834.41;;;7.11;100.00
10716;BME280;5409;42.620;23.316;2023-03-25T04:21:30;91809.88;;;6.90;100.00
10716;BME280;5409;42.620;23.316;2023-03-25T04:23:57;91833.44;;;7.05;100.00
10716;BME280;5409;42.620;23.316;2023-03-25T04:26:26;91829.44;;;7.10;100.00
10716;BME280;5409;42.620;23.316;2023-03-25T04:28:55;91831.94;;;7.04;100.00
10716;BME280;5409;42.620;23.316;2023-03-25T04:31:23;91825.53;;;7.11;100.00
10716;BME280;5409;42.620;23.316;2023-03-25T04:33:55;91821.84;;;7.05;100.00
10716;BME280;5409;42.620;23.316;2023-03-25T04:36:23;91827.72;;;7.16;100.00
10716;BME280;5409;42.620;23.316;2023-03-25T04:38:53;91812.09;;;7.07;100.00
10716;BME280;5409;42.620;23.316;2023-03-25T04:41:20;91827.06;;;7.12;100.00
10716;BME280;5409;42.620;23.316;2023-03-25T04:43:47;91831.81;;;7.08;100.00
10716;BME280;5409;42.620;23.316;2023-03-25T04:46:16;91835.19;;;7.12;100.00
10716;BME280;5409;42.620;23.316;2023-03-25T04:48:43;91856.53;;;7.10;100.00
10716;BME280;5409;42.620;23.316;2023-03-25T04:51:12;91840.50;;;7.15;100.00
10716;BME280;5409;42.620;23.316;2023-03-25T04:53:40;91849.63;;;7.21;100.00
10716;BME280;5409;42.620;23.316;2023-03-25T04:56:11;91849.59;;;7.37;100.00
10716;BME280;5409;42.620;23.316;2023-03-25T04:58:40;91847.88;;;7.43;100.00
10716;BME280;5409;42.620;23.316;2023-03-25T05:01:11;91841.25;;;7.44;100.00
10716;BME280;5409;42.620;23.316;2023-03-25T05:03:43;91849.31;;;7.60;100.00
10716;BME280;5409;42.620;23.316;2023-03-25T05:06:10;91848.78;;;7.65;100.00
10716;BME280;5409;42.620;23.316;2023-03-25T05:08:37;91847.72;;;7.75;100.00
10716;BME280;5409;42.620;23.316;2023-03-25T05:11:04;91846.28;;;7.83;100.00
10716;BME280;5409;42.620;23.316;2023-03-25T05:13:31;91849.66;;;7.87;100.00
10716;BME280;5409;42.620;23.316;2023-03-25T05:15:58;91846.41;;;7.92;100.00
10716;BME280;5409;42.620;23.316;2023-03-25T05:18:24;91867.91;;;7.99;100.00
10716;BME280;5409;42.620;23.316;2023-03-25T05:20:52;91850.22;;;8.07;100.00
10716;BME280;5409;42.620;23.316;2023-03-25T05:23:21;91845.25;;;8.18;100.00
10716;BME280;5409;42.620;23.316;2023-03-25T05:25:49;91849.91;;;8.30;100.00
10716;BME280;5409;42.620;23.316;2023-03-25T05:28:17;91856.63;;;8.38;100.00
10716;BME280;5409;42.620;23.316;2023-03-25T05:30:44;91860.97;;;8.48;100.00
10716;BME280;5409;42.620;23.316;2023-03-25T05:33:14;91863.03;;;8.56;100.00
10716;BME280;5409;42.620;23.316;2023-03-25T05:35:41;91852.25;;;8.65;100.00
10716;BME280;5409;42.620;23.316;2023-03-25T05:38:10;91858.53;;;8.75;100.00
10716;BME280;5409;42.620;23.316;2023-03-25T05:40:38;91855.78;;;8.87;100.00
10716;BME280;5409;42.620;23.316;2023-03-25T05:43:06;91865.56;;;8.97;100.00
10716;BME280;5409;42.620;23.316;2023-03-25T05:45:33;91860.06;;;9.09;100.00
10716;BME280;5409;42.620;23.316;2023-03-25T05:48:01;91832.28;;;8.93;100.00
10716;BME280;5409;42.620;23.316;2023-03-25T05:50:27;91841.75;;;9.22;100.00
10716;BME280;5409;42.620;23.316;2023-03-25T05:52:54;91867.13;;;9.41;100.00
10716;BME280;5409;42.620;23.316;2023-03-25T05:55:23;91852.00;;;9.40;100.00
10716;BME280;5409;42.620;23.316;2023-03-25T05:57:50;91867.75;;;9.66;100.00
10716;BME280;5409;42.620;23.316;2023-03-25T06:00:18;91872.38;;;9.78;100.00
10716;BME280;5409;42.620;23.316;2023-03-25T06:02:45;91880.91;;;9.89;100.00
10716;BME280;5409;42.620;23.316;2023-03-25T06:05:13;91875.59;;;10.07;100.00
10716;BME280;5409;42.620;23.316;2023-03-25T06:07:41;91874.44;;;10.17;100.00
10716;BME280;5409;42.620;23.316;2023-03-25T06:10:09;91872.50;;;10.26;100.00
10716;BME280;5409;42.620;23.316;2023-03-25T06:12:38;91879.56;;;10.45;100.00
10716;BME280;5409;42.620;23.316;2023-03-25T06:15:06;91871.59;;;10.60;100.00
10716;BME280;5409;42.620;23.316;2023-03-25T06:17:34;91874.19;;;10.72;100.00
10716;BME280;5409;42.620;23.316;2023-03-25T06:20:03;91864.06;;;10.73;100.00
10716;BME280;5409;42.620;23.316;2023-03-25T06:22:36;91867.44;;;10.95;100.00
10716;BME280;5409;42.620;23.316;2023-03-25T06:25:04;91875.75;;;11.00;100.00
10716;BME280;5409;42.620;23.316;2023-03-25T06:27:30;91869.88;;;11.02;100.00
10716;BME280;5409;42.620;23.316;2023-03-25T06:30:00;91872.72;;;10.98;100.00
10716;BME280;5409;42.620;23.316;2023-03-25T06:32:27;91876.25;;;11.08;100.00
10716;BME280;5409;42.620;23.316;2023-03-25T06:34:55;91875.22;;;11.23;100.00
10716;BME280;5409;42.620;23.316;2023-03-25T06:37:21;91881.13;;;11.39;100.00
10716;BME280;5409;42.620;23.316;2023-03-25T06:39:50;91888.69;;;11.53;100.00
10716;BME280;5409;42.620;23.316;2023-03-25T06:42:21;91887.53;;;11.72;98.35
10716;BME280;5409;42.620;23.316;2023-03-25T06:44:47;91881.13;;;11.84;97.29
10716;BME280;5409;42.620;23.316;2023-03-25T06:47:17;91862.31;;;11.86;97.09
10716;BME280;5409;42.620;23.316;2023-03-25T06:49:44;91886.41;;;12.06;95.23
10716;BME280;5409;42.620;23.316;2023-03-25T06:52:11;91887.69;;;12.78;94.41
10716;BME280;5409;42.620;23.316;2023-03-25T06:54:38;91892.78;;;13.03;90.59
10716;BME280;5409;42.620;23.316;2023-03-25T06:57:05;91910.75;;;13.28;88.38
10716;BME280;5409;42.620;23.316;2023-03-25T06:59:32;91912.47;;;13.16;87.19
10716;BME280;5409;42.620;23.316;2023-03-25T07:01:59;91912.88;;;13.00;89.09
10716;BME280;5409;42.620;23.316;2023-03-25T07:04:27;91910.78;;;13.19;87.21
10716;BME280;5409;42.620;23.316;2023-03-25T07:06:54;91906.56;;;13.65;87.40
10716;BME280;5409;42.620;23.316;2023-03-25T07:09:20;91906.31;;;14.29;81.60
10716;BME280;5409;42.620;23.316;2023-03-25T07:11:47;91900.19;;;14.49;79.35
10716;BME280;5409;42.620;23.316;2023-03-25T07:14:14;91902.44;;;14.65;80.01
10716;BME280;5409;42.620;23.316;2023-03-25T07:16:41;91896.22;;;14.98;78.38
10716;BME280;5409;42.620;23.316;2023-03-25T07:19:07;91894.44;;;14.95;76.59
10716;BME280;5409;42.620;23.316;2023-03-25T07:21:35;91900.06;;;14.72;75.76
10716;BME280;5409;42.620;23.316;2023-03-25T07:24:02;91892.81;;;15.03;77.34
10716;BME280;5409;42.620;23.316;2023-03-25T07:26:29;91895.59;;;15.38;75.53
10716;BME280;5409;42.620;23.316;2023-03-25T07:28:56;91897.53;;;15.92;72.73
10716;BME280;5409;42.620;23.316;2023-03-25T07:31:23;91904.81;;;16.14;70.41
10716;BME280;5409;42.620;23.316;2023-03-25T07:33:50;91902.00;;;15.89;68.91
10716;BME280;5409;42.620;23.316;2023-03-25T07:36:17;91868.13;;;15.98;68.55
10716;BME280;5409;42.620;23.316;2023-03-25T07:38:47;91902.53;;;16.13;68.38
10716;BME280;5409;42.620;23.316;2023-03-25T07:41:14;91894.97;;;16.28;67.88
10716;BME280;5409;42.620;23.316;2023-03-25T07:43:41;91893.25;;;16.10;67.92
10716;BME280;5409;42.620;23.316;2023-03-25T07:46:07;91900.22;;;16.31;67.95
10716;BME280;5409;42.620;23.316;2023-03-25T07:48:34;91894.66;;;16.71;65.52
10716;BME280;5409;42.620;23.316;2023-03-25T07:51:02;91887.16;;;16.72;65.81
10716;BME280;5409;42.620;23.316;2023-03-25T07:53:29;91886.84;;;16.19;65.33
10716;BME280;5409;42.620;23.316;2023-03-25T07:55:57;91885.13;;;16.21;66.65
10716;BME280;5409;42.620;23.316;2023-03-25T07:58:24;91876.94;;;16.78;65.94
10716;BME280;5409;42.620;23.316;2023-03-25T08:00:51;91876.31;;;16.63;65.37
10716;BME280;5409;42.620;23.316;2023-03-25T08:03:17;91879.53;;;16.61;65.61
10716;BME280;5409;42.620;23.316;2023-03-25T08:05:45;91876.44;;;16.79;65.92
10716;BME280;5409;42.620;23.316;2023-03-25T08:08:13;91875.91;;;17.06;63.55
10716;BME280;5409;42.620;23.316;2023-03-25T08:10:41;91875.63;;;17.35;61.98
10716;BME280;5409;42.620;23.316;2023-03-25T08:13:10;91844.22;;;17.63;60.31
10716;BME280;5409;42.620;23.316;2023-03-25T08:15:37;91857.06;;;18.52;55.81
10716;BME280;5409;42.620;23.316;2023-03-25T08:18:04;91864.38;;;18.55;58.15
10716;BME280;5409;42.620;23.316;2023-03-25T08:20:31;91866.13;;;18.69;56.96
10716;BME280;5409;42.620;23.316;2023-03-25T08:22:58;91843.72;;;18.34;54.04
10716;BME280;5409;42.620;23.316;2023-03-25T08:25:25;91843.41;;;18.10;56.64
10716;BME280;5409;42.620;23.316;2023-03-25T08:27:52;91842.69;;;18.26;56.61
10716;BME280;5409;42.620;23.316;2023-03-25T08:30:20;91842.66;;;18.15;55.39
10716;BME280;5409;42.620;23.316;2023-03-25T08:32:47;91846.41;;;18.18;55.82
10716;BME280;5409;42.620;23.316;2023-03-25T08:35:18;91850.16;;;18.09;57.01
10716;BME280;5409;42.620;23.316;2023-03-25T08:37:45;91853.50;;;18.30;57.09
10716;BME280;5409;42.620;23.316;2023-03-25T08:40:12;91846.03;;;18.96;55.18
10716;BME280;5409;42.620;23.316;2023-03-25T08:42:41;91839.78;;;18.90;54.17
10716;BME280;5409;42.620;23.316;2023-03-25T08:45:09;91833.47;;;19.06;53.25
10716;BME280;5409;42.620;23.316;2023-03-25T08:47:37;91831.00;;;18.69;54.02
10716;BME280;5409;42.620;23.316;2023-03-25T08:50:07;91831.44;;;18.30;56.40
10716;BME280;5409;42.620;23.316;2023-03-25T08:52:34;91837.75;;;18.57;56.78
10716;BME280;5409;42.620;23.316;2023-03-25T08:55:01;91829.47;;;18.96;56.95
10716;BME280;5409;42.620;23.316;2023-03-25T08:57:28;91831.44;;;18.40;58.64
10716;BME280;5409;42.620;23.316;2023-03-25T08:59:54;91838.44;;;18.25;62.45
10716;BME280;5409;42.620;23.316;2023-03-25T09:02:21;91836.75;;;18.93;55.93
10716;BME280;5409;42.620;23.316;2023-03-25T09:04:49;91831.25;;;19.21;53.50
10716;BME280;5409;42.620;23.316;2023-03-25T09:07:16;91833.56;;;19.95;54.13
10716;BME280;5409;42.620;23.316;2023-03-25T09:09:44;91812.25;;;20.31;51.84
10716;BME280;5409;42.620;23.316;2023-03-25T09:12:11;91814.22;;;20.81;50.58
10716;BME280;5409;42.620;23.316;2023-03-25T09:14:38;91812.03;;;20.64;49.96
10716;BME280;5409;42.620;23.316;2023-03-25T09:17:05;91807.66;;;20.79;51.34
10716;BME280;5409;42.620;23.316;2023-03-25T09:19:34;91805.63;;;21.14;50.33
10716;BME280;5409;42.620;23.316;2023-03-25T09:22:04;91810.69;;;21.88;45.95
10716;BME280;5409;42.620;23.316;2023-03-25T09:24:31;91808.63;;;22.30;44.27
10716;BME280;5409;42.620;23.316;2023-03-25T09:26:58;91797.34;;;21.86;45.70
10716;BME280;5409;42.620;23.316;2023-03-25T09:29:25;91794.47;;;21.20;48.79
10716;BME280;5409;42.620;23.316;2023-03-25T09:31:52;91799.22;;;20.61;48.63
10716;BME280;5409;42.620;23.316;2023-03-25T09:34:19;91792.09;;;20.36;52.51
10716;BME280;5409;42.620;23.316;2023-03-25T09:36:46;91795.53;;;20.53;51.07
10716;BME280;5409;42.620;23.316;2023-03-25T09:39:14;91791.91;;;20.98;48.45
10716;BME280;5409;42.620;23.316;2023-03-25T09:41:54;91793.41;;;21.28;48.55
10716;BME280;5409;42.620;23.316;2023-03-25T09:44:26;91781.78;;;21.54;48.34
10716;BME280;5409;42.620;23.316;2023-03-25T09:46:55;91798.09;;;22.47;43.30
10716;BME280;5409;42.620;23.316;2023-03-25T09:49:31;91800.34;;;22.99;42.23
10716;BME280;5409;42.620;23.316;2023-03-25T09:52:02;91790.94;;;23.33;40.33
10716;BME280;5409;42.620;23.316;2023-03-25T09:54:35;91794.97;;;23.63;39.71
10716;BME280;5409;42.620;23.316;2023-03-25T09:57:06;91781.69;;;23.69;38.53
10716;BME280;5409;42.620;23.316;2023-03-25T09:59:39;91786.09;;;23.20;38.93
10716;BME280;5409;42.620;23.316;2023-03-25T10:02:22;91788.84;;;22.58;41.01
10716;BME280;5409;42.620;23.316;2023-03-25T10:05:14;91786.81;;;21.31;44.85
10716;BME280;5409;42.620;23.316;2023-03-25T10:07:55;91782.25;;;19.94;49.99
10716;BME280;5409;42.620;23.316;2023-03-25T10:10:31;91774.06;;;19.67;52.89
10716;BME280;5409;42.620;23.316;2023-03-25T10:13:09;91771.44;;;19.29;54.10
10716;BME280;5409;42.620;23.316;2023-03-25T10:15:39;91764.66;;;19.86;53.66
10716;BME280;5409;42.620;23.316;2023-03-25T10:18:27;91768.91;;;20.39;50.36
10716;BME280;5409;42.620;23.316;2023-03-25T10:21:02;91759.63;;;20.71;49.78
10716;BME280;5409;42.620;23.316;2023-03-25T10:23:33;91765.25;;;21.19;47.34
10716;BME280;5409;42.620;23.316;2023-03-25T10:26:07;91757.41;;;21.71;44.58
10716;BME280;5409;42.620;23.316;2023-03-25T10:28:40;91751.28;;;21.54;44.11
10716;BME280;5409;42.620;23.316;2023-03-25T10:31:13;91748.22;;;21.99;43.50
10716;BME280;5409;42.620;23.316;2023-03-25T10:33:44;91737.88;;;21.34;45.41
10716;BME280;5409;42.620;23.316;2023-03-25T10:36:16;91739.56;;;20.60;46.13
10716;BME280;5409;42.620;23.316;2023-03-25T10:38:45;91739.41;;;20.47;48.38
10716;BME280;5409;42.620;23.316;2023-03-25T10:41:19;91729.75;;;20.59;50.06
10716;BME280;5409;42.620;23.316;2023-03-25T10:43:49;91727.31;;;21.08;45.36
10716;BME280;5409;42.620;23.316;2023-03-25T10:46:21;91730.84;;;21.99;42.86
10716;BME280;5409;42.620;23.316;2023-03-25T10:48:50;91726.00;;;22.18;41.42
10716;BME280;5409;42.620;23.316;2023-03-25T10:51:19;91725.28;;;21.99;42.82
10716;BME280;5409;42.620;23.316;2023-03-25T10:53:49;91720.22;;;22.16;42.35
10716;BME280;5409;42.620;23.316;2023-03-25T10:56:22;91722.63;;;22.25;40.82
10716;BME280;5409;42.620;23.316;2023-03-25T10:58:52;91721.97;;;22.19;40.09
10716;BME280;5409;42.620;23.316;2023-03-25T11:01:24;91707.13;;;21.98;41.15
10716;BME280;5409;42.620;23.316;2023-03-25T11:03:54;91724.59;;;22.48;38.87
10716;BME280;5409;42.620;23.316;2023-03-25T11:06:24;91716.06;;;22.91;39.64
10716;BME280;5409;42.620;23.316;2023-03-25T11:09:09;91708.16;;;23.26;36.88
10716;BME280;5409;42.620;23.316;2023-03-25T11:11:40;91700.44;;;23.58;35.74
10716;BME280;5409;42.620;23.316;2023-03-25T11:14:08;91703.00;;;23.30;36.93
10716;BME280;5409;42.620;23.316;2023-03-25T11:16:40;91707.16;;;23.23;37.92
10716;BME280;5409;42.620;23.316;2023-03-25T11:19:17;91691.88;;;23.17;37.42
10716;BME280;5409;42.620;23.316;2023-03-25T11:21:47;91673.41;;;22.88;38.55
10716;BME280;5409;42.620;23.316;2023-03-25T11:24:17;91691.47;;;22.50;39.85
10716;BME280;5409;42.620;23.316;2023-03-25T11:26:47;91681.53;;;22.55;40.85
10716;BME280;5409;42.620;23.316;2023-03-25T11:29:18;91680.53;;;22.39;40.27
10716;BME280;5409;42.620;23.316;2023-03-25T11:31:55;91679.16;;;22.77;39.82
10716;BME280;5409;42.620;23.316;2023-03-25T11:34:23;91672.13;;;22.89;40.97
10716;BME280;5409;42.620;23.316;2023-03-25T11:36:53;91671.59;;;22.91;39.96
10716;BME280;5409;42.620;23.316;2023-03-25T11:39:27;91647.69;;;22.69;39.57
10716;BME280;5409;42.620;23.316;2023-03-25T11:41:56;91659.25;;;23.30;38.88
10716;BME280;5409;42.620;23.316;2023-03-25T11:44:25;91662.97;;;23.46;37.30
10716;BME280;5409;42.620;23.316;2023-03-25T11:46:55;91659.47;;;24.05;36.21
10716;BME280;5409;42.620;23.316;2023-03-25T11:49:23;91668.25;;;24.42;35.64
10716;BME280;5409;42.620;23.316;2023-03-25T11:51:56;91620.78;;;24.68;35.80
10716;BME280;5409;42.620;23.316;2023-03-25T11:54:26;91654.38;;;25.31;32.65
10716;BME280;5409;42.620;23.316;2023-03-25T11:56:53;91654.16;;;24.27;34.09
10716;BME280;5409;42.620;23.316;2023-03-25T11:59:23;91643.59;;;23.66;35.06
10716;BME280;5409;42.620;23.316;2023-03-25T12:01:59;91644.34;;;23.67;34.99
10716;BME280;5409;42.620;23.316;2023-03-25T12:04:27;91639.03;;;23.17;35.60
10716;BME280;5409;42.620;23.316;2023-03-25T12:06:57;91641.09;;;22.98;36.39
10716;BME280;5409;42.620;23.316;2023-03-25T12:09:26;91633.84;;;22.82;35.88
10716;BME280;5409;42.620;23.316;2023-03-25T12:12:02;91632.16;;;22.48;36.41
10716;BME280;5409;42.620;23.316;2023-03-25T12:14:43;91627.94;;;22.10;37.35
10716;BME280;5409;42.620;23.316;2023-03-25T12:17:18;91622.47;;;21.31;38.21
10716;BME280;5409;42.620;23.316;2023-03-25T12:19:57;91628.72;;;20.65;42.23
10716;BME280;5409;42.620;23.316;2023-03-25T12:22:41;91607.94;;;20.53;41.06
10716;BME280;5409;42.620;23.316;2023-03-25T12:25:17;91611.63;;;20.08;42.18
10716;BME280;5409;42.620;23.316;2023-03-25T12:27:58;91624.13;;;19.79;43.29
10716;BME280;5409;42.620;23.316;2023-03-25T12:30:40;91627.09;;;19.87;43.67
10716;BME280;5409;42.620;23.316;2023-03-25T12:33:20;91625.56;;;20.26;44.06
10716;BME280;5409;42.620;23.316;2023-03-25T12:36:03;91634.44;;;20.49;42.38
10716;BME280;5409;42.620;23.316;2023-03-25T12:38:39;91638.06;;;20.03;41.82
10716;BME280;5409;42.620;23.316;2023-03-25T12:41:19;91639.91;;;20.25;41.11
10716;BME280;5409;42.620;23.316;2023-03-25T12:43:59;91630.53;;;20.04;41.45
10716;BME280;5409;42.620;23.316;2023-03-25T12:49:41;91617.53;;;20.23;42.83
10716;BME280;5409;42.620;23.316;2023-03-25T12:52:15;91621.84;;;20.18;43.19
10716;BME280;5409;42.620;23.316;2023-03-25T12:54:57;91623.28;;;20.54;39.97
10716;BME280;5409;42.620;23.316;2023-03-25T12:57:39;91628.69;;;20.41;41.00
10716;BME280;5409;42.620;23.316;2023-03-25T13:00:21;91626.13;;;20.49;40.98
10716;BME280;5409;42.620;23.316;2023-03-25T13:03:13;91626.91;;;20.44;40.95
10716;BME280;5409;42.620;23.316;2023-03-25T13:05:49;91615.44;;;20.34;41.08
10716;BME280;5409;42.620;23.316;2023-03-25T13:08:20;91622.75;;;19.97;42.15
10716;BME280;5409;42.620;23.316;2023-03-25T13:10:55;91619.31;;;19.85;43.89
10716;BME280;5409;42.620;23.316;2023-03-25T13:13:25;91618.16;;;19.70;44.29
10716;BME280;5409;42.620;23.316;2023-03-25T13:15:57;91613.66;;;19.67;44.02
10716;BME280;5409;42.620;23.316;2023-03-25T13:18:32;91614.91;;;19.26;44.29
10716;BME280;5409;42.620;23.316;2023-03-25T13:21:02;91612.19;;;19.09;43.77
10716;BME280;5409;42.620;23.316;2023-03-25T13:23:33;91615.13;;;18.65;46.00